Huvudsida
METAR-TAF:

METAR-TAF

Flygplatser :

Molde flygplats. Årø

Molde, Norge

latitud: 62-45N, longitud: 007-16E, höjd: 0 m

Aktuellt väderrapport

Denna rapport gjordes för 39 minuter sedan, klockan 18:50 UTC
Vind 5 kt från väst/nordväst, varierande mellan väst/sydväst och nord/nordväst
Temperatur 15°C
Fuktighet 63%
Tryck 1024 hPa
Sikt 10 km eller mer
Spridda moln på en höjd av 4500 ft

METAR: ENML 251850Z 30005KT 240V340 9999 SCT045 15/08 Q1024

Tid: 21:29 (19:29 UTC)

Väderprognos

Denna rapport gjordes för 2 timmar och 29 minuter sedan, klockan 17:00 UTC
Prognos gäller från 25 kl. 18 UTC till 25 kl. 22 UTC
Vind 10 kt från väst
Sikt 10 km eller mer
Få moln på en höjd av 800 ft
Spridda moln på en höjd av 4000 ft
Sannolikhet 40%
från 25 kl. 19 UTC till 25 kl. 22 UTC
Brutna moln på en höjd av 800 ft

TAF: ENML 251700Z 2518/2522 28010KT 9999 FEW008 SCT040 PROB40 2519/2522 BKN008

Aktuella väderrapporter och prognoser från 4000 flygplatser (METAR- och TAF-rapporter).

De tillgängliga stationerna syns som gula och röda prickar på kartan.

För musen över prickarna för att se namnen på stationerna.

Klicka sedan för att få väderrapporter och prognoser.

För att ändra kartan: Klicka på de gröna knapparna med ett svart kors på för att zooma in; den gröna knappen med ett streck på för att zooma ut; eller på de gröna pilarna för angränsande kartor.


METAR-TAF: